Time;durP1;ratioP1;P1;durP2;ratioP2;P2;SDS_P1;SDS_P2;PMS_P1;PMS_P2;Temp;Humidity;BMP_temperature;BMP_pressure;BME280_temperature;BME280_humidity;BME280_pressure;Samples;Min_cycle;Max_cycle;Signal;HPM_P1;HPM_P2
2024/01/09 00:01:49;;;;;;;23.40;13.43;;;-7.70;99.90;;;;;;5117143;28;20718;-73
2024/01/09 00:04:16;;;;;;;24.17;13.40;;;-7.70;99.90;;;;;;5117408;28;20251;-73
2024/01/09 00:06:42;;;;;;;18.17;11.83;;;-7.80;99.90;;;;;;5117081;28;20199;-72
2024/01/09 00:09:09;;;;;;;22.27;12.63;;;-7.70;99.90;;;;;;5116954;28;20194;-72
2024/01/09 00:11:35;;;;;;;24.43;13.10;;;-7.70;99.90;;;;;;5116808;28;20279;-72
2024/01/09 00:14:02;;;;;;;27.73;13.03;;;-7.70;99.90;;;;;;5117073;28;20255;-72
2024/01/09 00:16:30;;;;;;;20.17;11.47;;;-7.70;99.90;;;;;;5117086;28;20210;-72
2024/01/09 00:18:57;;;;;;;24.53;13.13;;;-7.80;99.90;;;;;;5116846;28;20255;-72
2024/01/09 00:21:24;;;;;;;24.67;12.77;;;-7.80;99.90;;;;;;5117192;28;20263;-73
2024/01/09 00:23:51;;;;;;;22.57;12.77;;;-7.80;99.90;;;;;;5116828;28;20192;-72
2024/01/09 00:26:18;;;;;;;22.27;12.87;;;-7.80;99.90;;;;;;5116792;28;20313;-72
2024/01/09 00:28:44;;;;;;;22.87;12.40;;;-7.90;99.90;;;;;;5116717;28;20294;-73
2024/01/09 00:31:11;;;;;;;20.97;12.30;;;-7.90;99.90;;;;;;5116826;28;20223;-74
2024/01/09 00:33:39;;;;;;;22.23;12.70;;;-7.80;99.90;;;;;;5116585;28;20251;-73
2024/01/09 00:36:06;;;;;;;21.10;12.03;;;-7.80;99.90;;;;;;5116346;28;20595;-73
2024/01/09 00:38:33;;;;;;;21.27;11.83;;;-7.80;99.90;;;;;;5116330;27;20199;-73
2024/01/09 00:41:00;;;;;;;21.27;11.33;;;-7.70;99.90;;;;;;5116512;27;20248;-73
2024/01/09 00:43:26;;;;;;;21.80;11.63;;;-7.70;99.90;;;;;;5116295;28;20234;-72
2024/01/09 00:45:53;;;;;;;20.57;11.40;;;-7.70;99.90;;;;;;5116212;28;20587;-72
2024/01/09 00:48:19;;;;;;;18.93;10.50;;;-7.70;99.90;;;;;;5116232;28;20204;-72
2024/01/09 00:50:47;;;;;;;20.93;11.33;;;-7.70;99.90;;;;;;5115617;28;20296;-72
2024/01/09 00:53:14;;;;;;;21.63;11.30;;;-7.70;99.90;;;;;;5116105;28;20202;-73
2024/01/09 00:55:41;;;;;;;21.43;12.03;;;-7.80;99.90;;;;;;5116253;28;20202;-73
2024/01/09 00:58:07;;;;;;;20.30;11.00;;;-7.70;99.90;;;;;;5116200;27;20622;-74
2024/01/09 01:00:34;;;;;;;22.63;11.57;;;-7.70;99.90;;;;;;5116039;28;20197;-72
2024/01/09 01:03:01;;;;;;;18.83;11.07;;;-7.60;99.90;;;;;;5115971;28;20194;-72
2024/01/09 01:05:28;;;;;;;19.37;11.37;;;-7.70;99.90;;;;;;5115869;28;20198;-72
2024/01/09 01:07:56;;;;;;;18.23;10.50;;;-7.70;99.90;;;;;;5116027;28;20205;-73
2024/01/09 01:10:22;;;;;;;20.90;11.20;;;-7.60;99.90;;;;;;5115917;28;20228;-73
2024/01/09 01:12:49;;;;;;;19.87;11.17;;;-7.70;99.90;;;;;;5115685;28;20679;-73
2024/01/09 01:15:16;;;;;;;18.97;11.03;;;-7.70;99.90;;;;;;5115739;27;20202;-73
2024/01/09 01:17:43;;;;;;;18.03;10.80;;;-7.70;99.90;;;;;;5115611;28;20598;-73
2024/01/09 01:20:10;;;;;;;19.37;11.07;;;-7.70;99.90;;;;;;5115505;28;20199;-73
2024/01/09 01:22:37;;;;;;;18.57;10.13;;;-7.80;99.90;;;;;;5115844;28;20201;-73
2024/01/09 01:25:05;;;;;;;23.00;10.47;;;-7.80;99.90;;;;;;5115810;28;20203;-73
2024/01/09 01:27:32;;;;;;;19.63;11.07;;;-7.80;99.90;;;;;;5115303;28;20589;-73
2024/01/09 01:29:59;;;;;;;19.80;10.63;;;-7.80;99.90;;;;;;5115235;27;20255;-73
2024/01/09 01:32:25;;;;;;;19.67;11.03;;;-7.90;99.90;;;;;;5115434;28;20233;-73
2024/01/09 01:34:52;;;;;;;23.37;11.20;;;-7.90;99.90;;;;;;5115350;28;20230;-73
2024/01/09 01:37:19;;;;;;;18.20;10.47;;;-7.90;99.90;;;;;;5115414;28;20201;-73
2024/01/09 01:39:45;;;;;;;18.33;10.47;;;-8.00;99.90;;;;;;5115356;28;20202;-72
2024/01/09 01:42:13;;;;;;;20.20;11.20;;;-8.10;99.90;;;;;;5115251;28;20198;-72
2024/01/09 01:44:40;;;;;;;18.77;10.27;;;-8.00;99.90;;;;;;5115197;28;20230;-72
2024/01/09 01:47:07;;;;;;;19.57;11.13;;;-8.00;99.90;;;;;;5115039;28;20612;-72
2024/01/09 01:49:33;;;;;;;21.13;11.70;;;-8.00;99.90;;;;;;5115236;28;20288;-72
2024/01/09 01:52:01;;;;;;;18.33;12.00;;;-8.00;99.90;;;;;;5115085;28;20237;-72
2024/01/09 01:54:29;;;;;;;21.70;12.30;;;-8.00;99.90;;;;;;5115035;28;20251;-72
2024/01/09 01:56:57;;;;;;;23.27;12.70;;;-8.10;99.90;;;;;;5114927;28;20199;-72
2024/01/09 01:59:25;;;;;;;29.13;13.23;;;-8.10;99.90;;;;;;5114899;28;20202;-72
2024/01/09 02:01:52;;;;;;;23.33;13.47;;;-8.10;99.90;;;;;;5113874;28;20206;-72
2024/01/09 02:04:20;;;;;;;25.60;13.07;;;-8.00;99.90;;;;;;5115009;28;20200;-72
2024/01/09 02:06:47;;;;;;;26.67;12.47;;;-8.00;99.90;;;;;;5114869;28;20251;-72
2024/01/09 02:09:14;;;;;;;28.63;13.47;;;-8.00;99.90;;;;;;5114857;28;20203;-72
2024/01/09 02:11:41;;;;;;;29.03;12.97;;;-8.00;99.90;;;;;;5114589;28;20258;-72
2024/01/09 02:14:08;;;;;;;31.80;13.70;;;-8.00;99.90;;;;;;5114469;28;20679;-72
2024/01/09 02:16:36;;;;;;;27.10;13.33;;;-8.00;99.90;;;;;;5114417;28;20194;-72
2024/01/09 02:19:02;;;;;;;25.03;12.53;;;-8.00;99.90;;;;;;5114531;28;20246;-72
2024/01/09 02:21:30;;;;;;;21.17;12.50;;;-8.00;99.90;;;;;;5114579;28;20197;-72
2024/01/09 02:23:56;;;;;;;23.47;12.83;;;-8.00;99.90;;;;;;5114383;28;20252;-73
2024/01/09 02:26:30;;;;;;;21.73;11.20;;;-8.10;99.90;;;;;;5114190;28;20597;-72
2024/01/09 02:29:05;;;;;;;26.67;12.70;;;-7.90;99.90;;;;;;5114211;28;20259;-72
2024/01/09 02:31:34;;;;;;;18.30;11.80;;;-8.00;99.90;;;;;;5114382;27;20775;-73
2024/01/09 02:34:02;;;;;;;25.23;13.00;;;-7.90;99.90;;;;;;5114281;28;20280;-72
2024/01/09 02:36:28;;;;;;;22.57;12.20;;;-8.00;99.90;;;;;;5114195;28;20230;-72
2024/01/09 02:38:55;;;;;;;22.73;12.80;;;-8.00;99.90;;;;;;5113942;28;20247;-72
2024/01/09 02:41:21;;;;;;;26.37;12.87;;;-8.00;99.90;;;;;;5113830;28;20201;-72
2024/01/09 02:43:48;;;;;;;21.63;12.13;;;-8.00;99.90;;;;;;5113895;28;20299;-72
2024/01/09 02:46:15;;;;;;;23.87;12.50;;;-8.00;99.90;;;;;;5114032;28;20602;-72
2024/01/09 02:48:43;;;;;;;22.57;12.60;;;-7.90;99.90;;;;;;5113801;28;20651;-72
2024/01/09 02:51:10;;;;;;;24.90;12.97;;;-7.90;99.90;;;;;;5114041;28;20215;-72
2024/01/09 02:53:37;;;;;;;21.37;11.47;;;-7.90;99.90;;;;;;5113872;28;20261;-72
2024/01/09 02:56:04;;;;;;;21.53;12.07;;;-8.00;99.90;;;;;;5113646;28;20196;-72
2024/01/09 02:58:31;;;;;;;21.83;12.40;;;-7.90;99.90;;;;;;5113753;28;20200;-72
2024/01/09 03:00:57;;;;;;;24.07;12.30;;;-7.90;99.90;;;;;;5113618;28;20602;-72
2024/01/09 03:03:24;;;;;;;24.23;13.07;;;-8.00;99.90;;;;;;5113776;28;20239;-72
2024/01/09 03:05:52;;;;;;;25.20;13.20;;;-8.00;99.90;;;;;;5113680;28;20202;-72
2024/01/09 03:08:19;;;;;;;23.73;13.17;;;-8.00;99.90;;;;;;5113422;28;20830;-73
2024/01/09 03:10:45;;;;;;;23.63;12.43;;;-8.10;99.90;;;;;;5113434;28;20245;-72
2024/01/09 03:13:12;;;;;;;19.43;11.37;;;-8.10;99.90;;;;;;5113579;28;20250;-72
2024/01/09 03:15:39;;;;;;;24.30;12.43;;;-8.00;99.90;;;;;;5113720;28;20197;-72
2024/01/09 03:18:05;;;;;;;23.53;12.13;;;-8.00;99.90;;;;;;5113499;28;20196;-72
2024/01/09 03:20:32;;;;;;;26.73;13.57;;;-8.10;99.90;;;;;;5113443;28;20203;-72
2024/01/09 03:23:00;;;;;;;22.40;12.43;;;-8.10;99.90;;;;;;5113338;28;20662;-72
2024/01/09 03:25:27;;;;;;;21.73;11.23;;;-8.20;99.90;;;;;;5113761;28;20202;-73
2024/01/09 03:27:55;;;;;;;21.67;12.60;;;-8.10;99.90;;;;;;5113462;28;20560;-73
2024/01/09 03:30:22;;;;;;;25.07;12.57;;;-8.20;99.90;;;;;;5113419;28;20200;-73
2024/01/09 03:32:48;;;;;;;20.90;12.07;;;-8.20;99.90;;;;;;5113406;28;20233;-73
2024/01/09 03:35:15;;;;;;;21.63;11.43;;;-8.20;99.90;;;;;;5113394;28;20208;-73
2024/01/09 03:37:42;;;;;;;22.50;12.47;;;-8.20;99.90;;;;;;5113144;28;20592;-73
2024/01/09 03:40:12;;;;;;;19.47;11.77;;;-8.20;99.90;;;;;;5113112;28;20219;-73
2024/01/09 03:42:38;;;;;;;21.63;12.03;;;-8.20;99.90;;;;;;5113146;28;20208;-73
2024/01/09 03:45:07;;;;;;;21.30;11.40;;;-8.30;99.90;;;;;;5113345;28;20242;-73
2024/01/09 03:47:33;;;;;;;23.73;12.33;;;-8.30;99.90;;;;;;5113143;28;20671;-73
2024/01/09 03:50:00;;;;;;;21.90;12.07;;;-8.30;99.90;;;;;;5112982;28;20201;-72
2024/01/09 03:52:26;;;;;;;20.00;11.73;;;-8.20;99.90;;;;;;5113388;28;20266;-72
2024/01/09 03:54:53;;;;;;;23.07;12.23;;;-8.30;99.90;;;;;;5113275;28;20589;-72
2024/01/09 03:57:21;;;;;;;25.30;11.93;;;-8.30;99.90;;;;;;5113125;28;20192;-72
2024/01/09 03:59:48;;;;;;;21.43;11.00;;;-8.40;99.90;;;;;;5112662;28;20246;-72
2024/01/09 04:02:14;;;;;;;26.03;11.93;;;-8.30;99.90;;;;;;5112957;28;20226;-72
2024/01/09 04:04:41;;;;;;;22.20;12.30;;;-8.20;99.90;;;;;;5112905;28;20257;-72
2024/01/09 04:07:08;;;;;;;23.10;12.00;;;-8.30;99.90;;;;;;5112877;28;20656;-72
2024/01/09 04:09:34;;;;;;;20.13;11.47;;;-8.30;99.90;;;;;;5113039;28;20194;-72
2024/01/09 04:12:01;;;;;;;18.63;11.03;;;-8.30;99.90;;;;;;5112743;28;20620;-72
2024/01/09 04:14:29;;;;;;;24.93;13.47;;;-8.30;99.90;;;;;;5112938;28;20201;-72
2024/01/09 04:16:56;;;;;;;22.70;12.47;;;-8.40;99.90;;;;;;5112820;28;20193;-72
2024/01/09 04:19:23;;;;;;;21.23;12.33;;;-8.40;99.90;;;;;;5112694;28;20244;-72
2024/01/09 04:21:49;;;;;;;22.73;11.60;;;-8.40;99.90;;;;;;5112953;28;20201;-72
2024/01/09 04:24:16;;;;;;;22.67;12.27;;;-8.30;99.90;;;;;;5113329;28;20284;-72
2024/01/09 04:26:43;;;;;;;21.70;11.57;;;-8.30;99.90;;;;;;5116733;28;20203;-72
2024/01/09 04:29:09;;;;;;;25.50;12.17;;;-8.20;99.90;;;;;;5116564;28;20254;-73
2024/01/09 04:31:37;;;;;;;19.77;11.87;;;-8.20;99.90;;;;;;5117070;28;20220;-73
2024/01/09 04:34:04;;;;;;;22.60;12.17;;;-8.20;99.90;;;;;;5117166;27;20204;-72
2024/01/09 04:36:30;;;;;;;21.80;11.13;;;-8.30;99.90;;;;;;5116667;28;20200;-72
2024/01/09 04:39:01;;;;;;;22.43;12.37;;;-8.20;99.90;;;;;;5116581;28;20195;-72
2024/01/09 04:41:27;;;;;;;20.63;11.20;;;-8.20;99.90;;;;;;5116481;28;20204;-73
2024/01/09 04:43:54;;;;;;;20.67;11.77;;;-8.20;99.90;;;;;;5116376;28;20645;-71
2024/01/09 04:46:21;;;;;;;22.23;11.43;;;-8.30;99.90;;;;;;5116245;27;20201;-72
2024/01/09 04:48:49;;;;;;;20.00;11.03;;;-8.30;99.90;;;;;;5116488;28;20207;-71
2024/01/09 04:51:15;;;;;;;24.53;11.43;;;-8.30;99.90;;;;;;5116098;28;20194;-71
2024/01/09 04:53:42;;;;;;;24.17;11.60;;;-8.20;99.90;;;;;;5116177;28;20247;-72
2024/01/09 04:56:09;;;;;;;23.10;11.40;;;-8.20;99.90;;;;;;5116123;28;20193;-71
2024/01/09 04:58:36;;;;;;;24.03;12.53;;;-8.20;99.90;;;;;;5116021;28;20280;-72
2024/01/09 05:01:03;;;;;;;22.67;11.87;;;-8.20;99.90;;;;;;5115949;27;20600;-71
2024/01/09 05:03:29;;;;;;;19.43;11.50;;;-8.30;99.90;;;;;;5116149;28;20251;-71
2024/01/09 05:05:57;;;;;;;20.50;11.13;;;-8.30;99.90;;;;;;5116105;28;20251;-71
2024/01/09 05:08:24;;;;;;;19.50;11.10;;;-8.30;99.90;;;;;;5115760;27;20721;-72
2024/01/09 05:10:51;;;;;;;21.23;10.77;;;-8.30;99.90;;;;;;5115809;28;20201;-71
2024/01/09 05:13:17;;;;;;;25.73;11.40;;;-8.20;99.90;;;;;;5115648;28;20234;-72
2024/01/09 05:15:44;;;;;;;21.63;10.87;;;-8.30;99.90;;;;;;5115729;28;20200;-72
2024/01/09 05:18:10;;;;;;;23.60;12.07;;;-8.30;99.90;;;;;;5115854;28;20201;-72
2024/01/09 05:20:37;;;;;;;23.87;12.13;;;-8.20;99.90;;;;;;5115827;28;20560;-71
2024/01/09 05:23:05;;;;;;;20.10;11.33;;;-8.30;99.90;;;;;;5115737;27;20255;-72
2024/01/09 05:25:32;;;;;;;22.33;11.93;;;-8.30;99.90;;;;;;5115529;28;20198;-72
2024/01/09 05:27:58;;;;;;;19.37;10.60;;;-8.30;99.90;;;;;;5115707;28;20197;-72
2024/01/09 05:30:25;;;;;;;24.87;11.60;;;-8.40;99.90;;;;;;5115280;28;20530;-72
2024/01/09 05:32:52;;;;;;;19.83;12.10;;;-8.30;99.90;;;;;;5115499;28;20224;-72
2024/01/09 05:35:19;;;;;;;23.70;12.40;;;-8.30;99.90;;;;;;5115094;28;20193;-72
2024/01/09 05:37:45;;;;;;;23.83;10.77;;;-8.30;99.90;;;;;;5114446;28;20284;-72
2024/01/09 05:40:14;;;;;;;24.13;12.03;;;-8.20;99.90;;;;;;5115289;28;20194;-73
2024/01/09 05:42:40;;;;;;;22.63;11.93;;;-8.30;99.90;;;;;;5115033;28;20251;-73
2024/01/09 05:45:08;;;;;;;16.73;10.10;;;-8.30;99.90;;;;;;5115118;28;20693;-73
2024/01/09 05:47:34;;;;;;;21.93;11.63;;;-8.30;99.90;;;;;;5115107;28;20201;-72
2024/01/09 05:50:01;;;;;;;22.87;11.83;;;-8.30;99.90;;;;;;5115079;28;20197;-73
2024/01/09 05:52:28;;;;;;;20.97;11.23;;;-8.30;99.90;;;;;;5114642;28;20713;-73
2024/01/09 05:54:54;;;;;;;20.43;10.67;;;-8.20;99.90;;;;;;5114928;28;20325;-70
2024/01/09 05:57:22;;;;;;;21.70;11.97;;;-8.30;99.90;;;;;;5114804;28;20201;-71
2024/01/09 05:59:49;;;;;;;20.60;10.33;;;-8.30;99.90;;;;;;5115025;28;20201;-73
2024/01/09 06:02:16;;;;;;;22.13;10.70;;;-8.30;99.90;;;;;;5114960;28;20394;-72
2024/01/09 06:04:42;;;;;;;18.57;10.80;;;-8.30;99.90;;;;;;5114818;27;20196;-72
2024/01/09 06:07:09;;;;;;;19.33;11.33;;;-8.40;99.90;;;;;;5114710;27;20581;-72
2024/01/09 06:09:36;;;;;;;23.53;11.27;;;-8.30;99.90;;;;;;5114652;28;20198;-72
2024/01/09 06:12:02;;;;;;;24.90;10.83;;;-8.30;99.90;;;;;;5114436;28;20226;-73
2024/01/09 06:14:30;;;;;;;20.17;11.27;;;-8.20;99.90;;;;;;5114698;28;20288;-72
2024/01/09 06:16:57;;;;;;;20.93;10.80;;;-8.30;99.90;;;;;;5114606;28;20247;-73
2024/01/09 06:19:23;;;;;;;21.97;11.33;;;-8.20;99.90;;;;;;5114294;28;20203;-74
2024/01/09 06:21:50;;;;;;;19.43;10.47;;;-8.30;99.90;;;;;;5114135;28;20640;-73
2024/01/09 06:24:17;;;;;;;19.33;11.00;;;-8.20;99.90;;;;;;5114310;28;20200;-72
2024/01/09 06:26:44;;;;;;;20.77;10.60;;;-8.20;99.90;;;;;;5114322;28;20246;-73
2024/01/09 06:29:10;;;;;;;19.80;10.97;;;-8.30;99.90;;;;;;5114135;28;20291;-73
2024/01/09 06:31:40;;;;;;;21.83;10.47;;;-8.20;99.90;;;;;;5114215;28;20194;-73
2024/01/09 06:34:07;;;;;;;20.00;10.57;;;-8.10;99.90;;;;;;5114055;28;20201;-72
2024/01/09 06:36:34;;;;;;;19.60;10.57;;;-8.20;99.90;;;;;;5114291;28;20250;-73
2024/01/09 06:39:00;;;;;;;22.07;11.67;;;-8.20;99.90;;;;;;5113946;28;20209;-73
2024/01/09 06:41:27;;;;;;;21.27;11.40;;;-8.10;99.90;;;;;;5114020;28;20198;-73
2024/01/09 06:43:54;;;;;;;20.90;11.23;;;-8.10;99.90;;;;;;5113743;28;20829;-73
2024/01/09 06:46:20;;;;;;;23.27;11.53;;;-8.10;99.90;;;;;;5113932;28;20258;-72
2024/01/09 06:48:48;;;;;;;22.73;11.60;;;-8.10;99.90;;;;;;5113597;28;20202;-73
2024/01/09 06:51:15;;;;;;;24.63;11.60;;;-8.20;99.90;;;;;;5113687;28;20242;-73
2024/01/09 06:53:41;;;;;;;21.13;10.93;;;-8.30;99.90;;;;;;5113260;28;20301;-73
2024/01/09 06:56:09;;;;;;;20.77;10.53;;;-8.30;99.90;;;;;;5113418;28;20656;-73
2024/01/09 06:58:35;;;;;;;22.93;11.67;;;-8.30;99.90;;;;;;5113644;28;20243;-73
2024/01/09 07:01:03;;;;;;;23.73;12.67;;;-8.20;99.90;;;;;;5113604;28;20724;-73
2024/01/09 07:03:30;;;;;;;23.43;11.37;;;-8.20;99.90;;;;;;5113701;28;20202;-73
2024/01/09 07:05:58;;;;;;;20.27;11.30;;;-8.20;99.90;;;;;;5113385;28;20197;-73
2024/01/09 07:08:25;;;;;;;27.67;14.03;;;-8.30;99.90;;;;;;5113296;28;20206;-73
2024/01/09 07:10:51;;;;;;;26.10;12.57;;;-8.20;99.90;;;;;;5113509;28;20243;-73
2024/01/09 07:13:18;;;;;;;22.90;11.37;;;-8.30;99.90;;;;;;5113484;28;20223;-73
2024/01/09 07:15:45;;;;;;;23.03;11.90;;;-8.30;99.90;;;;;;5113452;28;20196;-73
2024/01/09 07:18:11;;;;;;;30.20;12.67;;;-8.30;99.90;;;;;;5113485;27;20241;-73
2024/01/09 07:20:38;;;;;;;23.53;12.20;;;-8.20;99.90;;;;;;5113203;28;20206;-72
2024/01/09 07:23:06;;;;;;;18.50;10.77;;;-8.30;99.90;;;;;;5113520;28;20206;-73
2024/01/09 07:25:33;;;;;;;23.53;11.20;;;-8.20;99.90;;;;;;5113183;28;20198;-73
2024/01/09 07:27:59;;;;;;;19.47;10.53;;;-8.20;99.90;;;;;;5113285;28;20206;-74
2024/01/09 07:30:26;;;;;;;21.73;11.57;;;-8.10;99.90;;;;;;5113292;28;20198;-72
2024/01/09 07:32:53;;;;;;;24.50;12.50;;;-8.10;99.90;;;;;;5113134;28;20266;-73
2024/01/09 07:35:19;;;;;;;20.37;11.30;;;-8.10;99.90;;;;;;5113496;28;20197;-73
2024/01/09 07:37:46;;;;;;;19.67;11.13;;;-8.00;99.90;;;;;;5113608;28;20194;-73
2024/01/09 07:40:14;;;;;;;19.13;10.20;;;-8.00;99.90;;;;;;5113226;28;20593;-73
2024/01/09 07:42:41;;;;;;;20.00;10.67;;;-7.90;99.90;;;;;;5113067;28;20652;-73
2024/01/09 07:45:11;;;;;;;20.87;10.73;;;-7.90;99.90;;;;;;5113144;28;20198;-73
2024/01/09 07:47:38;;;;;;;22.07;11.73;;;-7.90;99.90;;;;;;5112939;28;20209;-73
2024/01/09 07:50:05;;;;;;;21.70;11.50;;;-7.80;99.90;;;;;;5113002;28;20593;-73
2024/01/09 07:52:32;;;;;;;21.00;11.13;;;-7.80;99.90;;;;;;5113013;28;20226;-73
2024/01/09 07:54:58;;;;;;;21.97;11.00;;;-7.60;99.90;;;;;;5113039;28;20566;-73
2024/01/09 07:57:26;;;;;;;20.93;11.30;;;-7.50;99.90;;;;;;5113298;28;20202;-73
2024/01/09 07:59:53;;;;;;;21.93;10.97;;;-7.40;99.90;;;;;;5114395;28;20206;-73
2024/01/09 08:02:19;;;;;;;15.13;9.67;;;-7.20;99.90;;;;;;5117520;28;20653;-72
2024/01/09 08:04:47;;;;;;;20.83;10.83;;;-7.10;99.90;;;;;;5117586;28;20199;-73
2024/01/09 08:07:13;;;;;;;20.70;10.77;;;-7.10;99.90;;;;;;5117413;28;20192;-73
2024/01/09 08:09:40;;;;;;;19.20;10.53;;;-6.90;99.90;;;;;;5116887;28;20601;-73
2024/01/09 08:12:07;;;;;;;18.80;10.53;;;-6.80;99.90;;;;;;5116899;28;20326;-79
2024/01/09 08:14:35;;;;;;;18.80;11.10;;;-6.70;99.90;;;;;;5116879;28;20188;-74
2024/01/09 08:17:01;;;;;;;19.60;10.27;;;-6.60;99.90;;;;;;5116577;28;20199;-74
2024/01/09 08:19:28;;;;;;;20.60;10.90;;;-6.50;99.90;;;;;;5116883;28;20206;-74
2024/01/09 08:21:55;;;;;;;18.70;9.97;;;-6.20;99.90;;;;;;5116326;28;20654;-74
2024/01/09 08:24:22;;;;;;;19.70;10.60;;;-6.20;99.90;;;;;;5116712;28;20220;-74
2024/01/09 08:26:50;;;;;;;17.70;10.73;;;-6.10;99.90;;;;;;5116643;28;20195;-74
2024/01/09 08:29:17;;;;;;;19.03;11.23;;;-6.00;99.90;;;;;;5116600;28;20191;-73
2024/01/09 08:31:46;;;;;;;18.07;10.23;;;-5.80;99.90;;;;;;5116558;28;20203;-74
2024/01/09 08:34:13;;;;;;;19.13;10.17;;;-5.80;99.90;;;;;;5116577;28;20252;-73
2024/01/09 08:36:42;;;;;;;17.90;10.03;;;-5.60;99.90;;;;;;5116907;28;20225;-73
2024/01/09 08:39:09;;;;;;;18.30;10.33;;;-5.50;99.90;;;;;;5116640;27;20200;-73
2024/01/09 08:41:36;;;;;;;18.87;10.27;;;-5.40;99.90;;;;;;5116370;28;20599;-73
2024/01/09 08:44:03;;;;;;;17.13;10.17;;;-5.20;99.90;;;;;;5116239;28;20982;-73
2024/01/09 08:46:29;;;;;;;17.17;9.67;;;-5.10;99.90;;;;;;5116308;28;20709;-72
2024/01/09 08:48:57;;;;;;;16.00;10.07;;;-4.90;99.90;;;;;;5115685;28;20196;-73
2024/01/09 08:51:24;;;;;;;19.13;9.43;;;-4.80;99.90;;;;;;5114282;28;20207;-73
2024/01/09 08:53:52;;;;;;;17.23;9.53;;;-4.60;99.90;;;;;;5113114;28;20280;-74
2024/01/09 08:56:19;;;;;;;17.30;10.00;;;-4.60;99.90;;;;;;5112191;28;20667;-74
2024/01/09 08:58:46;;;;;;;17.67;10.67;;;-4.40;99.90;;;;;;5112307;27;20652;-75
2024/01/09 09:01:13;;;;;;;15.07;9.67;;;-4.40;99.90;;;;;;5122924;27;20559;-74
2024/01/09 09:03:39;;;;;;;20.30;9.83;;;-4.20;99.90;;;;;;5112472;28;20209;-73
2024/01/09 09:06:08;;;;;;;18.80;9.90;;;-4.10;99.90;;;;;;5112011;28;20200;-75
2024/01/09 09:08:36;;;;;;;20.07;10.07;;;-3.90;99.90;;;;;;5111973;28;20209;-73
2024/01/09 09:11:03;;;;;;;23.73;10.60;;;-3.70;99.90;;;;;;5111875;28;20678;-74
2024/01/09 09:13:30;;;;;;;19.73;10.00;;;-3.60;99.90;;;;;;5112291;28;20227;-73
2024/01/09 09:15:57;;;;;;;20.20;9.83;;;-3.40;99.90;;;;;;5112502;28;20205;-73
2024/01/09 09:18:24;;;;;;;22.73;11.40;;;-3.30;98.60;;;;;;5112381;28;20241;-75
2024/01/09 09:20:51;;;;;;;17.40;10.17;;;-3.10;97.70;;;;;;5128992;27;20203;-74
2024/01/09 09:23:19;;;;;;;17.50;9.47;;;-2.90;97.50;;;;;;5132899;27;20203;-73
2024/01/09 09:25:45;;;;;;;19.23;10.03;;;-2.80;96.50;;;;;;5132957;27;20256;-74
2024/01/09 09:28:13;;;;;;;18.93;9.83;;;-2.70;95.50;;;;;;5132917;27;20199;-74
2024/01/09 09:30:43;;;;;;;16.23;10.33;;;-2.60;95.20;;;;;;5132784;27;20203;-74
2024/01/09 09:33:09;;;;;;;17.40;10.53;;;-2.40;94.70;;;;;;5132289;27;20226;-73
2024/01/09 09:35:36;;;;;;;17.83;10.67;;;-2.10;92.80;;;;;;5132685;27;20199;-73
2024/01/09 09:38:04;;;;;;;15.83;9.93;;;-2.00;91.90;;;;;;5132441;27;20202;-69
2024/01/09 09:40:32;;;;;;;17.03;10.43;;;-1.90;91.50;;;;;;5132273;27;20294;-73
2024/01/09 09:43:03;;;;;;;14.73;9.43;;;-1.80;90.70;;;;;;5131689;27;20770;-72
2024/01/09 09:45:33;;;;;;;15.17;10.17;;;-1.60;86.80;;;;;;5130506;27;20654;-73
2024/01/09 09:48:05;;;;;;;13.63;10.03;;;-1.50;84.80;;;;;;5111228;27;20195;-72
2024/01/09 09:50:34;;;;;;;15.57;9.90;;;-1.30;82.60;;;;;;5122380;27;20268;-71
2024/01/09 09:53:01;;;;;;;16.77;10.27;;;-1.10;80.50;;;;;;5131553;27;20218;-71
2024/01/09 09:55:28;;;;;;;13.93;9.93;;;-0.90;78.30;;;;;;5129984;27;20197;-71
2024/01/09 09:57:57;;;;;;;14.77;9.63;;;-0.70;75.90;;;;;;5131700;27;20252;-74
2024/01/09 10:00:26;;;;;;;12.53;9.33;;;-0.70;72.30;;;;;;5132145;27;20570;-72
2024/01/09 10:02:56;;;;;;;14.40;9.63;;;-0.40;70.40;;;;;;5131987;27;20203;-73
2024/01/09 10:05:23;;;;;;;15.00;10.20;;;-0.30;68.00;;;;;;5131575;27;20279;-73
2024/01/09 10:07:53;;;;;;;19.73;10.47;;;-0.10;66.30;;;;;;5131807;27;20535;-73
2024/01/09 10:10:20;;;;;;;13.57;9.47;;;0.10;63.60;;;;;;5131833;27;20255;-73
2024/01/09 10:12:49;;;;;;;14.13;9.77;;;0.30;62.80;;;;;;5131520;27;20318;-74
2024/01/09 10:15:17;;;;;;;17.67;10.17;;;0.50;60.20;;;;;;5131660;27;20666;-72
2024/01/09 10:17:44;;;;;;;16.00;9.87;;;0.80;57.50;;;;;;5130747;27;20209;-72
2024/01/09 10:20:13;;;;;;;13.70;9.80;;;0.90;56.30;;;;;;5131632;27;20709;-73
2024/01/09 10:22:40;;;;;;;12.33;9.47;;;1.20;54.50;;;;;;5130889;27;20914;-71
2024/01/09 10:25:09;;;;;;;13.73;10.13;;;1.40;53.00;;;;;;5131577;27;20203;-72
2024/01/09 10:27:37;;;;;;;13.70;10.00;;;1.50;52.60;;;;;;5131550;27;20203;-73
2024/01/09 10:30:05;;;;;;;17.43;10.03;;;2.50;51.60;;;;;;5134552;27;20202;-71
2024/01/09 10:32:34;;;;;;;12.93;9.97;;;3.40;49.80;;;;;;5132979;27;20285;-73
2024/01/09 10:35:03;;;;;;;14.67;10.60;;;4.70;46.60;;;;;;5134485;27;20309;-72
2024/01/09 10:37:30;;;;;;;15.77;10.33;;;5.10;43.10;;;;;;5133439;27;20201;-73
2024/01/09 10:39:57;;;;;;;12.17;9.77;;;5.50;40.20;;;;;;5133968;27;20535;-72
2024/01/09 10:42:23;;;;;;;11.90;9.70;;;5.80;37.70;;;;;;5131644;27;20206;-74
2024/01/09 10:44:51;;;;;;;14.80;10.30;;;6.00;35.40;;;;;;5134044;27;20835;-74
2024/01/09 10:47:18;;;;;;;12.70;9.77;;;6.50;33.70;;;;;;5126320;27;20647;-75
2024/01/09 10:49:46;;;;;;;15.93;10.67;;;6.80;31.50;;;;;;5113834;28;20232;-74
2024/01/09 10:52:14;;;;;;;17.57;10.97;;;6.60;30.30;;;;;;5120268;27;20191;-75
2024/01/09 10:54:42;;;;;;;14.60;11.10;;;7.20;30.00;;;;;;5134088;27;20222;-74
2024/01/09 10:57:12;;;;;;;14.57;11.20;;;7.80;29.10;;;;;;5133651;27;20252;-74
2024/01/09 10:59:40;;;;;;;14.20;11.20;;;8.00;27.90;;;;;;5133866;27;20610;-75
2024/01/09 11:02:13;;;;;;;14.37;10.63;;;8.00;26.80;;;;;;5134090;27;20244;-75
2024/01/09 11:04:41;;;;;;;14.17;10.03;;;7.80;26.10;;;;;;5134170;27;20289;-75
2024/01/09 11:07:12;;;;;;;16.23;10.97;;;8.30;25.50;;;;;;5128950;27;20250;-74
2024/01/09 11:09:42;;;;;;;15.73;10.37;;;8.20;24.80;;;;;;5127537;27;20198;-76
2024/01/09 11:12:11;;;;;;;19.30;11.50;;;8.20;24.60;;;;;;5134765;27;20285;-76
2024/01/09 11:14:40;;;;;;;14.80;11.47;;;8.70;24.50;;;;;;5133762;27;20284;-78
2024/01/09 11:17:09;;;;;;;16.80;11.57;;;9.40;24.30;;;;;;5133892;27;20191;-77
2024/01/09 11:19:37;;;;;;;16.60;10.93;;;9.60;23.40;;;;;;5133952;27;20199;-76
2024/01/09 11:22:14;;;;;;;15.17;10.57;;;8.80;22.40;;;;;;5133857;27;20201;-75
2024/01/09 11:24:41;;;;;;;14.33;10.63;;;9.10;22.20;;;;;;5133823;27;20251;-76
2024/01/09 11:27:12;;;;;;;13.07;10.73;;;9.80;21.90;;;;;;5134007;27;20199;-75
2024/01/09 11:29:49;;;;;;;12.83;9.83;;;9.60;21.00;;;;;;5134168;27;20236;-76
2024/01/09 11:32:16;;;;;;;15.20;10.17;;;9.50;21.00;;;;;;5138501;27;20278;-76
2024/01/09 11:34:44;;;;;;;14.70;10.17;;;9.90;20.60;;;;;;5133523;27;20655;-75
2024/01/09 11:37:14;;;;;;;14.70;10.47;;;9.90;20.40;;;;;;5133941;27;20198;-75
2024/01/09 11:39:42;;;;;;;12.35;10.20;;;10.20;19.30;;;;;;5133891;28;20263;-75
2024/01/09 11:42:08;;;;;;;14.60;11.60;;;10.50;19.40;;;;;;5133503;28;20202;-76
2024/01/09 11:44:35;;;;;;;14.52;11.13;;;11.00;18.70;;;;;;5133598;28;20223;-75
2024/01/09 11:47:02;;;;;;;13.48;10.35;;;11.30;18.10;;;;;;5133681;28;20203;-76
2024/01/09 11:49:28;;;;;;;19.05;11.13;;;11.70;17.60;;;;;;5134144;28;20230;-73
2024/01/09 11:51:56;;;;;;;12.57;10.27;;;11.60;17.10;;;;;;5133589;28;20244;-75
2024/01/09 11:54:24;;;;;;;14.10;10.25;;;11.60;17.30;;;;;;5133276;28;20331;-76
2024/01/09 11:56:51;;;;;;;12.75;9.60;;;11.60;16.30;;;;;;5133823;28;20203;-74
2024/01/09 11:59:18;;;;;;;12.43;10.55;;;11.50;16.60;;;;;;5133257;28;20251;-75
2024/01/09 12:01:46;;;;;;;12.80;10.52;;;11.20;16.40;;;;;;5133454;28;20203;-76
2024/01/09 12:04:12;;;;;;;13.13;10.25;;;11.70;16.80;;;;;;5133448;28;20210;-75
2024/01/09 12:06:39;;;;;;;12.80;10.50;;;12.20;16.30;;;;;;5133568;28;20199;-74
2024/01/09 12:09:06;;;;;;;14.65;11.27;;;12.10;16.00;;;;;;5133594;28;20241;-75
2024/01/09 12:11:35;;;;;;;14.43;10.98;;;12.70;16.10;;;;;;5133694;28;20195;-74
2024/01/09 12:14:02;;;;;;;13.60;11.45;;;12.20;15.20;;;;;;5133499;28;20246;-74
2024/01/09 12:16:30;;;;;;;15.23;11.60;;;12.10;15.10;;;;;;5133473;28;20264;-74
2024/01/09 12:18:57;;;;;;;15.05;10.35;;;12.30;14.80;;;;;;5134144;28;20202;-74
2024/01/09 12:21:26;;;;;;;12.88;11.00;;;11.90;13.90;;;;;;5133206;28;20210;-75
2024/01/09 12:23:55;;;;;;;12.13;9.38;;;12.10;13.90;;;;;;5133342;28;20203;-72
2024/01/09 12:26:23;;;;;;;13.05;10.23;;;12.90;14.00;;;;;;5133334;28;20199;-73
2024/01/09 12:28:52;;;;;;;12.98;10.30;;;12.50;13.20;;;;;;5133245;28;20191;-73